createdAt,value
2022-11-17T00:00:41.947Z,8.70
2022-11-17T00:03:14.893Z,8.03
2022-11-17T00:05:42.332Z,6.80
2022-11-17T00:08:09.274Z,9.17
2022-11-17T00:10:36.344Z,7.93
2022-11-17T00:13:21.492Z,8.63
2022-11-17T00:15:48.379Z,7.37
2022-11-17T00:18:33.703Z,7.87
2022-11-17T00:21:19.889Z,10.07
2022-11-17T00:23:48.138Z,8.47
2022-11-17T00:26:27.517Z,9.40
2022-11-17T00:28:58.796Z,10.00
2022-11-17T00:31:46.399Z,6.97
2022-11-17T00:34:19.953Z,8.23
2022-11-17T00:36:52.008Z,9.50
2022-11-17T00:39:21.590Z,9.53
2022-11-17T00:41:48.460Z,8.60
2022-11-17T00:44:16.377Z,9.17
2022-11-17T00:46:43.758Z,7.93
2022-11-17T00:49:12.000Z,8.40
2022-11-17T00:51:39.111Z,8.13
2022-11-17T00:54:08.036Z,8.60
2022-11-17T00:56:34.961Z,7.87
2022-11-17T00:59:02.181Z,8.27
2022-11-17T01:01:30.157Z,9.60
2022-11-17T01:04:03.509Z,8.10
2022-11-17T01:06:43.448Z,8.60
2022-11-17T01:09:21.987Z,6.90
2022-11-17T01:11:51.958Z,7.63
2022-11-17T01:14:26.625Z,7.37
2022-11-17T01:16:54.492Z,9.67
2022-11-17T01:19:22.453Z,6.77
2022-11-17T01:21:49.399Z,8.17
2022-11-17T01:24:17.348Z,8.40
2022-11-17T01:26:45.769Z,6.83
2022-11-17T01:29:17.046Z,7.73
2022-11-17T01:31:44.956Z,8.83
2022-11-17T01:34:12.735Z,8.90
2022-11-17T01:37:02.196Z,7.90
2022-11-17T01:39:30.756Z,8.03
2022-11-17T01:41:58.591Z,7.83
2022-11-17T01:44:59.952Z,8.10
2022-11-17T01:47:37.658Z,8.80
2022-11-17T01:50:21.877Z,7.20
2022-11-17T01:52:52.528Z,7.63
2022-11-17T01:55:21.646Z,7.50
2022-11-17T01:57:56.834Z,8.53
2022-11-17T02:00:24.031Z,8.23
2022-11-17T02:02:52.071Z,7.20
2022-11-17T02:05:44.277Z,6.93
2022-11-17T02:08:12.362Z,8.47
2022-11-17T02:10:40.157Z,7.53
2022-11-17T02:13:08.448Z,8.20
2022-11-17T02:15:35.280Z,8.47
2022-11-17T02:18:03.119Z,7.93
2022-11-17T02:20:54.970Z,7.17
2022-11-17T02:23:42.192Z,6.90
2022-11-17T02:26:34.455Z,8.17
2022-11-17T02:29:25.884Z,7.50
2022-11-17T02:32:09.761Z,7.63
2022-11-17T02:35:03.203Z,8.00
2022-11-17T02:37:34.468Z,7.63
2022-11-17T02:40:14.778Z,6.90
2022-11-17T02:43:20.420Z,7.67
2022-11-17T02:45:56.566Z,8.57
2022-11-17T02:48:32.638Z,6.53
2022-11-17T02:51:00.466Z,6.57
2022-11-17T02:53:28.932Z,8.40
2022-11-17T02:56:00.195Z,8.13
2022-11-17T02:58:27.020Z,7.90
2022-11-17T03:01:19.465Z,7.53
2022-11-17T03:04:30.482Z,5.50
2022-11-17T03:07:24.877Z,7.10
2022-11-17T03:10:46.188Z,7.60
2022-11-17T03:13:56.969Z,7.17
2022-11-17T03:16:42.934Z,7.40
2022-11-17T03:19:30.473Z,8.37
2022-11-17T03:22:13.100Z,8.87
2022-11-17T03:24:58.209Z,7.37
2022-11-17T03:27:30.947Z,7.40
2022-11-17T03:30:03.427Z,7.63
2022-11-17T03:32:36.907Z,8.20
2022-11-17T03:35:11.406Z,7.57
2022-11-17T03:38:04.226Z,7.60
2022-11-17T03:40:34.110Z,7.33
2022-11-17T03:43:05.995Z,7.73
2022-11-17T03:45:38.642Z,8.17
2022-11-17T03:48:39.180Z,7.30
2022-11-17T03:51:24.320Z,9.67
2022-11-17T03:53:52.642Z,8.07
2022-11-17T03:56:39.952Z,7.47
2022-11-17T03:59:32.538Z,7.97
2022-11-17T04:01:59.799Z,9.03
2022-11-17T04:04:47.930Z,7.37
2022-11-17T04:07:14.949Z,7.13
2022-11-17T04:09:41.816Z,8.27
2022-11-17T04:12:27.196Z,6.83
2022-11-17T04:15:12.945Z,7.30
2022-11-17T04:17:40.095Z,8.23
2022-11-17T04:20:08.096Z,8.33
2022-11-17T04:22:34.992Z,8.63
2022-11-17T04:25:02.186Z,7.03
2022-11-17T04:27:47.437Z,8.23
2022-11-17T04:30:14.622Z,8.50
2022-11-17T04:32:41.494Z,7.40
2022-11-17T04:35:08.917Z,7.87
2022-11-17T04:37:35.770Z,8.17
2022-11-17T04:40:02.800Z,7.50
2022-11-17T04:42:29.658Z,8.17
2022-11-17T04:44:56.522Z,7.13
2022-11-17T04:47:23.381Z,8.37
2022-11-17T04:49:50.267Z,10.37
2022-11-17T04:52:17.196Z,8.90
2022-11-17T04:54:44.207Z,8.60
2022-11-17T04:57:11.119Z,7.60
2022-11-17T04:59:38.020Z,8.80
2022-11-17T05:02:06.279Z,8.73
2022-11-17T05:04:52.003Z,7.30
2022-11-17T05:07:18.982Z,8.37
2022-11-17T05:09:45.884Z,9.47
2022-11-17T05:12:31.367Z,7.67
2022-11-17T05:14:58.281Z,8.80
2022-11-17T05:17:25.142Z,9.57
2022-11-17T05:19:51.971Z,9.23
2022-11-17T05:22:41.305Z,9.13
2022-11-17T05:25:09.227Z,9.83
2022-11-17T05:27:36.312Z,7.17
2022-11-17T05:30:07.028Z,9.37
2022-11-17T05:32:34.005Z,8.60
2022-11-17T05:35:00.963Z,7.07
2022-11-17T05:37:27.973Z,9.23
2022-11-17T05:39:55.007Z,8.37
2022-11-17T05:42:22.031Z,8.40
2022-11-17T05:44:49.031Z,9.40
2022-11-17T05:47:16.114Z,8.60
2022-11-17T05:49:43.071Z,9.63
2022-11-17T05:52:10.215Z,9.33
2022-11-17T05:54:37.319Z,9.70
2022-11-17T05:57:11.000Z,9.77
2022-11-17T05:59:44.538Z,10.00
2022-11-17T06:02:29.220Z,10.83
2022-11-17T06:04:56.115Z,9.80
2022-11-17T06:07:23.948Z,5.67
2022-11-17T06:09:52.057Z,8.67
2022-11-17T06:12:18.989Z,9.10
2022-11-17T06:14:45.903Z,9.57
2022-11-17T06:17:31.123Z,10.53
2022-11-17T06:20:12.366Z,7.97
2022-11-17T06:22:41.845Z,8.87
2022-11-17T06:25:12.550Z,9.20
2022-11-17T06:27:41.105Z,8.87
2022-11-17T06:30:08.404Z,9.63
2022-11-17T06:32:43.210Z,9.07
2022-11-17T06:35:12.983Z,8.10
2022-11-17T06:37:40.169Z,10.23
2022-11-17T06:40:08.051Z,9.00
2022-11-17T06:42:53.842Z,9.60
2022-11-17T06:45:20.721Z,10.47
2022-11-17T06:47:47.649Z,8.90
2022-11-17T06:50:14.908Z,7.20
2022-11-17T06:52:41.939Z,9.10
2022-11-17T06:55:09.411Z,8.60
2022-11-17T06:57:36.596Z,7.30
2022-11-17T07:00:06.358Z,8.90
2022-11-17T07:02:33.705Z,9.60
2022-11-17T07:05:00.647Z,8.95
2022-11-17T07:07:27.703Z,9.67
2022-11-17T07:09:54.808Z,9.43
2022-11-17T07:12:21.835Z,8.37
2022-11-17T07:14:48.801Z,7.90
2022-11-17T07:17:15.797Z,8.80
2022-11-17T07:19:42.886Z,9.13
2022-11-17T07:22:09.813Z,8.03
2022-11-17T07:24:36.772Z,8.80
2022-11-17T07:27:04.879Z,8.27
2022-11-17T07:29:31.887Z,9.00
2022-11-17T07:31:58.885Z,9.50
2022-11-17T07:34:25.851Z,8.13
2022-11-17T07:36:52.872Z,7.37
2022-11-17T07:39:21.687Z,7.90
2022-11-17T07:41:48.832Z,8.33
2022-11-17T07:44:15.765Z,8.57
2022-11-17T07:46:42.740Z,8.20
2022-11-17T07:49:09.687Z,8.17
2022-11-17T07:51:36.702Z,7.87
2022-11-17T07:54:03.908Z,5.83
2022-11-17T07:56:31.018Z,8.10
2022-11-17T07:58:57.972Z,6.43
2022-11-17T08:01:27.618Z,7.93
2022-11-17T08:03:54.915Z,7.60
2022-11-17T08:06:23.957Z,7.70
2022-11-17T08:08:51.798Z,6.27
2022-11-17T08:11:19.414Z,8.00
2022-11-17T08:13:47.052Z,8.57
2022-11-17T08:16:14.449Z,7.00
2022-11-17T08:18:43.988Z,7.63
2022-11-17T08:21:15.375Z,7.97
2022-11-17T08:23:42.524Z,6.10
2022-11-17T08:26:11.859Z,6.80
2022-11-17T08:28:39.518Z,7.20
2022-11-17T08:31:08.812Z,7.13
2022-11-17T08:33:36.079Z,7.40
2022-11-17T08:36:05.882Z,8.50
2022-11-17T08:38:33.623Z,6.37
2022-11-17T08:41:07.093Z,7.73
2022-11-17T08:43:34.821Z,3.63
2022-11-17T08:46:02.734Z,6.53
2022-11-17T08:48:31.660Z,8.40
2022-11-17T08:50:59.176Z,9.27
2022-11-17T08:53:26.157Z,7.40
2022-11-17T08:55:53.199Z,8.33
2022-11-17T08:58:20.157Z,7.60
2022-11-17T09:00:47.781Z,7.50
2022-11-17T09:03:15.494Z,7.73
2022-11-17T09:05:47.037Z,8.90
2022-11-17T09:11:10.784Z,8.07
2022-11-17T09:13:39.314Z,7.73
2022-11-17T09:16:10.059Z,9.07
2022-11-17T09:18:39.019Z,7.90
2022-11-17T09:21:10.657Z,5.50
2022-11-17T09:23:38.071Z,8.50
2022-11-17T09:26:14.643Z,9.33
2022-11-17T09:28:42.923Z,9.57
2022-11-17T09:31:20.336Z,8.00
2022-11-17T09:33:47.819Z,9.60
2022-11-17T09:36:16.477Z,9.23
2022-11-17T09:38:44.471Z,9.73
2022-11-17T09:41:42.035Z,10.07
2022-11-17T09:44:31.164Z,8.97
2022-11-17T09:47:19.885Z,7.50
2022-11-17T09:49:58.073Z,11.53
2022-11-17T09:52:30.959Z,10.30
2022-11-17T09:55:10.053Z,9.67
2022-11-17T09:57:52.396Z,10.07
2022-11-17T10:00:21.906Z,11.07
2022-11-17T10:02:50.899Z,11.10
2022-11-17T10:05:35.431Z,10.10
2022-11-17T10:08:13.142Z,8.30
2022-11-17T10:10:46.050Z,10.87
2022-11-17T10:13:36.769Z,11.40
2022-11-17T10:16:14.302Z,9.70
2022-11-17T10:18:41.555Z,9.37
2022-11-17T10:21:09.494Z,9.33
2022-11-17T10:23:46.256Z,10.57
2022-11-17T10:26:16.271Z,10.13
2022-11-17T10:28:44.782Z,10.80
2022-11-17T10:31:14.081Z,9.00
2022-11-17T10:33:48.079Z,10.23
2022-11-17T10:36:30.794Z,10.97
2022-11-17T10:39:00.488Z,11.80
2022-11-17T10:41:37.707Z,10.50
2022-11-17T10:44:22.145Z,10.23
2022-11-17T10:47:08.080Z,8.07
2022-11-17T11:05:19.091Z,9.03
2022-11-17T11:07:46.058Z,8.40
2022-11-17T11:10:25.310Z,9.20
2022-11-17T11:13:20.578Z,6.40
2022-11-17T11:15:48.155Z,9.13
2022-11-17T11:18:20.623Z,9.55
2022-11-17T11:24:35.187Z,10.40
2022-11-17T11:27:13.976Z,8.67
2022-11-17T11:29:57.814Z,8.20
2022-11-17T11:32:32.747Z,7.73
2022-11-17T11:35:21.323Z,9.40
2022-11-17T11:38:13.792Z,9.53
2022-11-17T11:40:46.015Z,8.13
2022-11-17T11:43:44.729Z,7.30
2022-11-17T11:46:15.592Z,9.00
2022-11-17T11:48:42.507Z,9.33
2022-11-17T11:51:17.857Z,8.83
2022-11-17T11:54:13.600Z,8.93
2022-11-17T11:56:46.186Z,8.07
2022-11-17T11:59:48.168Z,8.80
2022-11-17T12:02:39.799Z,6.90
2022-11-17T12:05:53.196Z,6.27
2022-11-17T12:08:38.042Z,7.13
2022-11-17T12:12:01.968Z,7.23
2022-11-17T12:14:37.351Z,9.63
2022-11-17T12:17:18.589Z,4.83
2022-11-17T12:19:55.366Z,7.80
2022-11-17T12:22:28.966Z,7.10
2022-11-17T12:25:18.127Z,7.33
2022-11-17T12:27:52.641Z,8.80
2022-11-17T12:30:34.785Z,7.47
2022-11-17T12:33:04.847Z,8.50
2022-11-17T12:35:38.099Z,8.90
2022-11-17T12:38:17.177Z,9.10
2022-11-17T12:40:52.879Z,8.60
2022-11-17T12:43:27.792Z,7.90
2022-11-17T12:46:14.530Z,8.53
2022-11-17T12:49:03.932Z,7.90
2022-11-17T12:51:44.586Z,6.27
2022-11-17T12:54:23.344Z,8.90
2022-11-17T12:56:57.502Z,9.53
2022-11-17T13:00:05.387Z,8.13
2022-11-17T13:02:58.941Z,8.90
2022-11-17T13:05:30.103Z,8.10
2022-11-17T13:08:14.997Z,8.37
2022-11-17T13:10:41.931Z,8.77
2022-11-17T13:13:24.041Z,8.97
2022-11-17T13:15:58.763Z,8.70
2022-11-17T13:18:36.451Z,7.83
2022-11-17T13:21:05.297Z,7.87
2022-11-17T13:23:34.489Z,7.87
2022-11-17T13:26:16.353Z,5.50
2022-11-17T13:28:44.499Z,8.70
2022-11-17T13:31:23.914Z,8.90
2022-11-17T13:34:09.718Z,8.37
2022-11-17T13:36:37.166Z,8.60
2022-11-17T13:39:04.221Z,7.00
2022-11-17T13:41:38.810Z,7.80
2022-11-17T13:44:08.647Z,9.03
2022-11-17T13:46:36.262Z,6.60
2022-11-17T13:49:39.225Z,6.30
2022-11-17T13:52:32.509Z,9.10
2022-11-17T13:55:01.827Z,8.23
2022-11-17T13:57:29.911Z,8.50
2022-11-17T13:59:58.588Z,6.73
2022-11-17T14:02:29.380Z,9.03
2022-11-17T14:05:23.473Z,8.73
2022-11-17T14:07:53.055Z,9.23
2022-11-17T14:10:22.728Z,7.70
2022-11-17T14:13:02.978Z,9.53
2022-11-17T14:15:34.540Z,10.13
2022-11-17T14:18:05.731Z,8.93
2022-11-17T14:20:35.648Z,7.97
2022-11-17T14:23:08.708Z,8.30
2022-11-17T14:25:41.252Z,8.97
2022-11-17T14:28:15.565Z,9.23
2022-11-17T14:30:45.061Z,8.03
2022-11-17T14:33:13.749Z,9.37
2022-11-17T14:35:41.871Z,6.43
2022-11-17T14:38:18.329Z,9.33
2022-11-17T14:40:45.474Z,8.23
2022-11-17T14:43:12.418Z,8.40
2022-11-17T14:45:39.468Z,7.60
2022-11-17T14:48:06.802Z,8.30
2022-11-17T14:50:34.381Z,7.23
2022-11-17T14:53:02.237Z,7.53
2022-11-17T14:55:29.322Z,8.90
2022-11-17T14:57:56.357Z,8.00
2022-11-17T15:00:23.594Z,8.17
2022-11-17T15:02:51.212Z,9.30
2022-11-17T15:05:18.365Z,8.00
2022-11-17T15:07:45.367Z,8.80
2022-11-17T15:10:12.543Z,9.93
2022-11-17T15:12:39.503Z,9.13
2022-11-17T15:15:07.445Z,7.33
2022-11-17T15:17:34.409Z,8.83
2022-11-17T15:20:02.347Z,8.17
2022-11-17T15:22:29.421Z,10.00
2022-11-17T15:24:56.378Z,9.77
2022-11-17T15:27:23.762Z,8.67
2022-11-17T15:29:50.875Z,11.20
2022-11-17T15:32:17.865Z,10.70
2022-11-17T15:34:44.872Z,11.00
2022-11-17T15:37:11.976Z,7.87
2022-11-17T15:39:39.099Z,9.87
2022-11-17T15:42:06.048Z,10.50
2022-11-17T15:44:33.005Z,11.40
2022-11-17T15:47:00.086Z,11.00
2022-11-17T15:49:27.071Z,11.90
2022-11-17T15:51:54.618Z,12.17
2022-11-17T15:54:23.374Z,10.63
2022-11-17T15:56:51.786Z,11.10
2022-11-17T15:59:19.529Z,12.93
2022-11-17T16:01:47.023Z,13.00
2022-11-17T16:04:16.124Z,10.80
2022-11-17T16:06:45.650Z,13.00
2022-11-17T16:09:13.464Z,10.67
2022-11-17T16:11:41.590Z,12.90
2022-11-17T16:14:09.115Z,14.37
2022-11-17T16:16:39.003Z,11.53
2022-11-17T16:19:07.080Z,10.47
2022-11-17T16:21:34.019Z,13.30
2022-11-17T16:24:02.358Z,14.57
2022-11-17T16:26:30.475Z,9.70
2022-11-17T16:29:03.020Z,13.47
2022-11-17T16:31:33.521Z,12.00
2022-11-17T16:34:05.138Z,13.83
2022-11-17T16:36:36.804Z,11.70
2022-11-17T16:39:07.386Z,12.70
2022-11-17T16:41:37.946Z,13.50
2022-11-17T16:44:11.728Z,12.87
2022-11-17T16:46:41.867Z,12.73
2022-11-17T16:49:13.693Z,14.00
2022-11-17T16:51:41.174Z,10.83
2022-11-17T16:54:12.548Z,12.43
2022-11-17T16:56:40.234Z,12.90
2022-11-17T16:59:07.450Z,14.10
2022-11-17T17:01:36.939Z,10.83
2022-11-17T17:04:07.224Z,12.50
2022-11-17T17:06:37.156Z,13.17
2022-11-17T17:09:06.983Z,13.40
2022-11-17T17:11:35.984Z,10.50
2022-11-17T17:14:05.539Z,13.50
2022-11-17T17:16:35.701Z,12.00
2022-11-17T17:19:05.471Z,12.70
2022-11-17T17:21:34.088Z,13.50
2022-11-17T17:24:02.258Z,13.70
2022-11-17T17:26:31.984Z,12.50
2022-11-17T17:29:01.077Z,12.37
2022-11-17T17:31:42.448Z,12.47
2022-11-17T17:34:11.967Z,13.27
2022-11-17T17:36:39.272Z,13.07
2022-11-17T17:39:06.751Z,12.47
2022-11-17T17:41:39.451Z,13.57
2022-11-17T17:44:08.178Z,11.87
2022-11-17T17:46:38.532Z,9.77
2022-11-17T17:49:06.183Z,13.57
2022-11-17T17:51:38.170Z,13.87
2022-11-17T17:54:05.833Z,10.40
2022-11-17T17:56:34.888Z,14.17
2022-11-17T17:59:02.250Z,13.57
2022-11-17T18:01:33.211Z,11.37
2022-11-17T18:04:05.181Z,14.97
2022-11-17T18:06:38.299Z,8.47
2022-11-17T18:09:10.893Z,10.57
2022-11-17T18:11:45.597Z,13.77
2022-11-17T18:14:13.408Z,13.40
2022-11-17T18:16:41.098Z,14.07
2022-11-17T18:19:09.418Z,15.87
2022-11-17T18:21:36.497Z,13.63
2022-11-17T18:24:03.781Z,15.23
2022-11-17T18:26:35.266Z,15.83
2022-11-17T18:29:14.895Z,14.40
2022-11-17T18:31:42.874Z,10.97
2022-11-17T18:34:21.647Z,14.60
2022-11-17T18:36:50.325Z,16.07
2022-11-17T18:39:17.717Z,13.00
2022-11-17T18:41:45.314Z,12.03
2022-11-17T18:44:19.743Z,17.40
2022-11-17T18:46:47.385Z,14.67
2022-11-17T18:49:14.854Z,13.97
2022-11-17T18:51:42.184Z,14.73
2022-11-17T18:54:12.174Z,13.87
2022-11-17T18:56:40.065Z,15.83
2022-11-17T18:59:11.671Z,11.97
2022-11-17T19:01:42.284Z,16.23
2022-11-17T19:04:11.940Z,15.80
2022-11-17T19:06:39.019Z,13.40
2022-11-17T19:09:06.808Z,18.33
2022-11-17T19:11:35.103Z,15.67
2022-11-17T19:14:04.227Z,14.67
2022-11-17T19:16:32.806Z,15.63
2022-11-17T19:19:00.118Z,13.00
2022-11-17T19:21:35.898Z,17.10
2022-11-17T19:24:04.433Z,17.83
2022-11-17T19:26:35.836Z,17.30
2022-11-17T19:29:11.184Z,16.53
2022-11-17T19:31:41.691Z,11.73
2022-11-17T19:34:08.655Z,17.30
2022-11-17T19:36:35.803Z,14.23
2022-11-17T19:39:03.828Z,10.87
2022-11-17T19:41:34.708Z,16.57
2022-11-17T19:44:06.737Z,14.17
2022-11-17T19:46:36.151Z,14.27
2022-11-17T19:49:04.822Z,16.17
2022-11-17T19:51:36.630Z,9.40
2022-11-17T19:54:07.414Z,16.00
2022-11-17T19:56:35.411Z,15.63
2022-11-17T19:59:03.413Z,17.57
2022-11-17T20:01:31.653Z,14.10
2022-11-17T20:04:00.396Z,18.50
2022-11-17T20:06:37.155Z,15.17
2022-11-17T20:09:13.671Z,14.57
2022-11-17T20:11:41.844Z,18.67
2022-11-17T20:14:09.170Z,16.10
2022-11-17T20:16:38.653Z,16.47
2022-11-17T20:19:05.779Z,18.03
2022-11-17T20:21:34.678Z,19.13
2022-11-17T20:24:02.715Z,18.00
2022-11-17T20:26:33.620Z,14.30
2022-11-17T20:29:02.386Z,14.70
2022-11-17T20:31:33.638Z,17.50
2022-11-17T20:34:02.032Z,17.77
2022-11-17T20:36:31.867Z,18.97
2022-11-17T20:39:02.332Z,15.73
2022-11-17T20:41:30.232Z,16.97
2022-11-17T20:43:59.667Z,19.50
2022-11-17T20:46:26.876Z,17.93
2022-11-17T20:48:54.156Z,17.17
2022-11-17T20:51:23.882Z,20.13
2022-11-17T20:53:51.634Z,16.93
2022-11-17T20:56:19.073Z,18.63
2022-11-17T20:58:46.082Z,17.10
2022-11-17T21:01:20.120Z,18.30
2022-11-17T21:03:48.027Z,18.90
2022-11-17T21:06:16.521Z,17.70
2022-11-17T21:08:45.104Z,19.43
2022-11-17T21:11:37.398Z,17.17
2022-11-17T21:14:06.918Z,19.40
2022-11-17T21:16:36.838Z,18.80
2022-11-17T21:19:04.630Z,16.30
2022-11-17T21:21:32.002Z,18.63
2022-11-17T21:23:59.680Z,20.43
2022-11-17T21:26:27.948Z,15.27
2022-11-17T21:28:55.024Z,18.07
2022-11-17T21:31:25.775Z,16.20
2022-11-17T21:34:05.271Z,15.40
2022-11-17T21:36:33.895Z,18.17
2022-11-17T21:39:02.343Z,16.20
2022-11-17T21:41:35.466Z,18.43
2022-11-17T21:44:03.523Z,17.23
2022-11-17T21:46:33.907Z,17.50
2022-11-17T21:49:01.844Z,17.10
2022-11-17T21:51:38.544Z,16.40
2022-11-17T21:54:10.031Z,17.73
2022-11-17T21:56:37.265Z,17.50
2022-11-17T21:59:09.604Z,17.60
2022-11-17T22:01:37.209Z,16.33
2022-11-17T22:04:04.936Z,17.70
2022-11-17T22:06:32.034Z,17.10
2022-11-17T22:08:59.652Z,16.37
2022-11-17T22:11:36.301Z,16.73
2022-11-17T22:14:12.145Z,18.60
2022-11-17T22:16:53.658Z,16.10
2022-11-17T22:19:24.024Z,16.17
2022-11-17T22:21:53.665Z,17.40
2022-11-17T22:24:22.582Z,17.63
2022-11-17T22:26:51.446Z,18.23
2022-11-17T22:29:21.525Z,17.20
2022-11-17T22:31:49.906Z,14.90
2022-11-17T22:34:18.384Z,17.03
2022-11-17T22:36:45.693Z,17.30
2022-11-17T22:39:12.759Z,18.23
2022-11-17T22:41:39.933Z,14.93
2022-11-17T22:44:07.006Z,15.23
2022-11-17T22:46:35.504Z,17.60
2022-11-17T22:49:03.179Z,17.67
2022-11-17T22:51:48.446Z,11.77
2022-11-17T22:54:15.456Z,17.83
2022-11-17T22:56:42.774Z,18.70
2022-11-17T22:59:10.174Z,16.73
2022-11-17T23:01:37.501Z,15.63
2022-11-17T23:04:04.565Z,19.30
2022-11-17T23:06:31.590Z,16.60
2022-11-17T23:08:59.074Z,19.27
2022-11-17T23:11:36.937Z,13.47
2022-11-17T23:14:05.588Z,15.30
2022-11-17T23:16:33.181Z,17.83
2022-11-17T23:19:00.411Z,16.13
2022-11-17T23:21:27.303Z,19.83
2022-11-17T23:23:54.360Z,19.17
2022-11-17T23:26:22.356Z,20.07
2022-11-17T23:28:49.504Z,17.70
2022-11-17T23:31:18.056Z,20.07
2022-11-17T23:33:48.277Z,17.30
2022-11-17T23:36:18.444Z,11.83
2022-11-17T23:38:46.690Z,22.07
2022-11-17T23:41:16.803Z,16.30
2022-11-17T23:43:43.782Z,22.07
2022-11-17T23:46:17.226Z,18.17
2022-11-17T23:48:44.866Z,20.03
2022-11-17T23:51:21.717Z,18.50
2022-11-17T23:53:49.635Z,19.70
2022-11-17T23:56:18.924Z,20.20
2022-11-17T23:58:46.349Z,17.67
